Hume, California
Current Conditions -  °F | °C
As of 12:35 AM on Saturday 25 Oct 2014 (Local Time) from KVIS Reporting Station
Clear Clear  
Wind Chill: 14°   Ceiling: Unl
Heat Index: 14°   Visibility: 7mi
Dew Point:   Wind: 7mph
Humidity: 63%   Direction: 110°ESE
Pressure: 29.95"   Gusts: NA
Location:  36.78°N, 118.91°W
Report Text: KVIS 250735Z 11006KT 7SM CLR 14/07 A2995 RMK AO1
Loading
Personal Weather Stations






























Interactive Weather Map
Tropical Storm Tracking
New forecast layout! Learn more

10-Day Weather Forecast

Advertisements
Track Severe Weather on mobile